Terminal Aerodrome Forecast
Issued by NWS

Home | Current Version | Previous Version | Text Only | Print | Product List | Glossary On
Versions: 1 2 3 4 5 6 7 8 9 10 11 12 13
000
FTUS46 KSTO 270546 AAA
TAFMHR
TAF AMD
KMHR 270546Z 2706/2806 14005KT P6SM VCSH OVC040
     FM270900 22008KT P6SM SCT025
      TEMPO 2710/2714 BKN020
     FM272000 32011KT P6SM SCT030
      AMD NOT SKED=

USA.gov is the U.S. government's official web portal to all federal, state and local government web resources and services.